Terminal Aerodrome Forecast
Issued by NWS

Home | Current Version | Previous Version | Graphics & Text | Print | Product List | Glossary On
Versions: 1 2 3 4 5 6 7 8 9 10 11 12 13
000
FTUS43 KMPX 252320
TAFAXN
TAF
KAXN 252320Z 2600/2624 15012KT P6SM VCSH BKN050
     FM260800 17008KT P6SM BKN080
     FM261200 20006KT P6SM BKN110
     FM261500 26009KT P6SM SCT200=

USA.gov is the U.S. government's official web portal to all federal, state and local government web resources and services.